sensor_id;sensor_type;location;lat;lon;timestamp;P1;durP1;ratioP1;P2;durP2;ratioP2
10150;SDS011;5116;52.318;4.644;2023-02-07T00:02:14;3.37;;;2.77;;
10150;SDS011;5116;52.318;4.644;2023-02-07T00:04:42;3.23;;;2.30;;
10150;SDS011;5116;52.318;4.644;2023-02-07T00:07:12;4.23;;;3.40;;
10150;SDS011;5116;52.318;4.644;2023-02-07T00:09:40;4.03;;;3.03;;
10150;SDS011;5116;52.318;4.644;2023-02-07T00:12:07;3.93;;;3.47;;
10150;SDS011;5116;52.318;4.644;2023-02-07T00:14:35;4.37;;;3.30;;
10150;SDS011;5116;52.318;4.644;2023-02-07T00:17:05;4.37;;;3.07;;
10150;SDS011;5116;52.318;4.644;2023-02-07T00:19:35;4.37;;;2.77;;
10150;SDS011;5116;52.318;4.644;2023-02-07T00:22:03;5.13;;;3.03;;
10150;SDS011;5116;52.318;4.644;2023-02-07T00:24:30;4.90;;;3.23;;
10150;SDS011;5116;52.318;4.644;2023-02-07T00:26:58;4.03;;;3.20;;
10150;SDS011;5116;52.318;4.644;2023-02-07T00:29:25;4.17;;;3.23;;
10150;SDS011;5116;52.318;4.644;2023-02-07T00:31:53;3.47;;;2.80;;
10150;SDS011;5116;52.318;4.644;2023-02-07T00:34:20;3.73;;;3.17;;
10150;SDS011;5116;52.318;4.644;2023-02-07T00:36:48;4.87;;;3.77;;
10150;SDS011;5116;52.318;4.644;2023-02-07T00:39:16;4.27;;;3.37;;
10150;SDS011;5116;52.318;4.644;2023-02-07T00:41:44;3.87;;;2.97;;
10150;SDS011;5116;52.318;4.644;2023-02-07T00:44:12;2.90;;;2.43;;
10150;SDS011;5116;52.318;4.644;2023-02-07T00:46:39;3.93;;;3.03;;
10150;SDS011;5116;52.318;4.644;2023-02-07T00:49:07;4.97;;;3.73;;
10150;SDS011;5116;52.318;4.644;2023-02-07T00:51:34;5.27;;;3.37;;
10150;SDS011;5116;52.318;4.644;2023-02-07T00:54:02;4.67;;;2.73;;
10150;SDS011;5116;52.318;4.644;2023-02-07T00:56:30;5.23;;;2.83;;
10150;SDS011;5116;52.318;4.644;2023-02-07T00:58:58;4.90;;;3.37;;
10150;SDS011;5116;52.318;4.644;2023-02-07T01:01:25;3.60;;;3.00;;
10150;SDS011;5116;52.318;4.644;2023-02-07T01:03:55;4.13;;;2.87;;
10150;SDS011;5116;52.318;4.644;2023-02-07T01:06:23;4.77;;;3.17;;
10150;SDS011;5116;52.318;4.644;2023-02-07T01:08:54;3.13;;;2.83;;
10150;SDS011;5116;52.318;4.644;2023-02-07T01:11:22;3.97;;;3.00;;
10150;SDS011;5116;52.318;4.644;2023-02-07T01:13:50;3.87;;;2.80;;
10150;SDS011;5116;52.318;4.644;2023-02-07T01:16:31;4.13;;;2.93;;
10150;SDS011;5116;52.318;4.644;2023-02-07T01:19:00;4.33;;;3.03;;
10150;SDS011;5116;52.318;4.644;2023-02-07T01:21:28;5.40;;;3.23;;
10150;SDS011;5116;52.318;4.644;2023-02-07T01:23:55;5.83;;;3.20;;
10150;SDS011;5116;52.318;4.644;2023-02-07T01:26:23;5.83;;;3.03;;
10150;SDS011;5116;52.318;4.644;2023-02-07T01:28:52;4.70;;;3.40;;
10150;SDS011;5116;52.318;4.644;2023-02-07T01:31:20;3.20;;;2.67;;
10150;SDS011;5116;52.318;4.644;2023-02-07T01:33:52;4.80;;;3.30;;
10150;SDS011;5116;52.318;4.644;2023-02-07T01:36:21;3.50;;;3.20;;
10150;SDS011;5116;52.318;4.644;2023-02-07T01:38:50;4.40;;;2.90;;
10150;SDS011;5116;52.318;4.644;2023-02-07T01:41:17;4.43;;;3.40;;
10150;SDS011;5116;52.318;4.644;2023-02-07T01:43:58;4.53;;;3.13;;
10150;SDS011;5116;52.318;4.644;2023-02-07T01:46:27;4.80;;;3.27;;
10150;SDS011;5116;52.318;4.644;2023-02-07T01:48:56;6.03;;;3.27;;
10150;SDS011;5116;52.318;4.644;2023-02-07T01:51:24;3.33;;;2.87;;
10150;SDS011;5116;52.318;4.644;2023-02-07T01:53:52;4.20;;;2.83;;
10150;SDS011;5116;52.318;4.644;2023-02-07T01:56:22;5.87;;;3.13;;
10150;SDS011;5116;52.318;4.644;2023-02-07T01:59:00;5.23;;;3.20;;
10150;SDS011;5116;52.318;4.644;2023-02-07T02:01:28;4.20;;;3.07;;
10150;SDS011;5116;52.318;4.644;2023-02-07T02:03:55;7.00;;;3.57;;
10150;SDS011;5116;52.318;4.644;2023-02-07T02:06:24;5.23;;;3.57;;
10150;SDS011;5116;52.318;4.644;2023-02-07T02:08:53;4.03;;;3.07;;
10150;SDS011;5116;52.318;4.644;2023-02-07T02:11:35;5.97;;;3.00;;
10150;SDS011;5116;52.318;4.644;2023-02-07T02:14:55;4.97;;;3.27;;
10150;SDS011;5116;52.318;4.644;2023-02-07T02:16:59;5.70;;;3.70;;
10150;SDS011;5116;52.318;4.644;2023-02-07T02:22:10;3.90;;;2.73;;
10150;SDS011;5116;52.318;4.644;2023-02-07T02:27:36;5.07;;;3.57;;
10150;SDS011;5116;52.318;4.644;2023-02-07T02:37:45;3.60;;;3.17;;
10150;SDS011;5116;52.318;4.644;2023-02-07T02:40:22;3.33;;;2.83;;
10150;SDS011;5116;52.318;4.644;2023-02-07T02:42:52;3.73;;;2.57;;
10150;SDS011;5116;52.318;4.644;2023-02-07T02:45:30;4.13;;;3.60;;
10150;SDS011;5116;52.318;4.644;2023-02-07T02:47:59;4.23;;;2.70;;
10150;SDS011;5116;52.318;4.644;2023-02-07T02:50:28;3.57;;;3.23;;
10150;SDS011;5116;52.318;4.644;2023-02-07T02:52:56;3.03;;;2.73;;
10150;SDS011;5116;52.318;4.644;2023-02-07T02:58:17;5.67;;;3.00;;
10150;SDS011;5116;52.318;4.644;2023-02-07T03:00:51;2.70;;;2.23;;
10150;SDS011;5116;52.318;4.644;2023-02-07T03:03:34;6.77;;;3.20;;
10150;SDS011;5116;52.318;4.644;2023-02-07T03:06:18;5.23;;;3.43;;
10150;SDS011;5116;52.318;4.644;2023-02-07T03:08:53;4.37;;;3.10;;
10150;SDS011;5116;52.318;4.644;2023-02-07T03:11:23;5.77;;;3.33;;
10150;SDS011;5116;52.318;4.644;2023-02-07T03:21:40;3.70;;;3.03;;
10150;SDS011;5116;52.318;4.644;2023-02-07T03:26:51;4.93;;;2.57;;
10150;SDS011;5116;52.318;4.644;2023-02-07T03:29:21;3.67;;;2.93;;
10150;SDS011;5116;52.318;4.644;2023-02-07T03:31:50;3.00;;;2.43;;
10150;SDS011;5116;52.318;4.644;2023-02-07T03:34:41;3.93;;;2.97;;
10150;SDS011;5116;52.318;4.644;2023-02-07T03:37:08;3.17;;;2.60;;
10150;SDS011;5116;52.318;4.644;2023-02-07T03:39:37;2.40;;;2.20;;
10150;SDS011;5116;52.318;4.644;2023-02-07T03:42:07;3.93;;;2.80;;
10150;SDS011;5116;52.318;4.644;2023-02-07T03:44:35;3.10;;;2.53;;
10150;SDS011;5116;52.318;4.644;2023-02-07T03:47:03;2.53;;;2.33;;
10150;SDS011;5116;52.318;4.644;2023-02-07T03:49:33;3.00;;;2.77;;
10150;SDS011;5116;52.318;4.644;2023-02-07T03:52:01;2.70;;;2.33;;
10150;SDS011;5116;52.318;4.644;2023-02-07T03:54:29;5.57;;;3.03;;
10150;SDS011;5116;52.318;4.644;2023-02-07T03:56:56;6.43;;;3.73;;
10150;SDS011;5116;52.318;4.644;2023-02-07T03:59:23;3.50;;;2.67;;
10150;SDS011;5116;52.318;4.644;2023-02-07T04:01:51;3.80;;;2.17;;
10150;SDS011;5116;52.318;4.644;2023-02-07T04:04:18;3.73;;;2.20;;
10150;SDS011;5116;52.318;4.644;2023-02-07T04:06:46;3.00;;;2.37;;
10150;SDS011;5116;52.318;4.644;2023-02-07T04:09:14;2.57;;;2.37;;
10150;SDS011;5116;52.318;4.644;2023-02-07T04:11:41;4.03;;;3.63;;
10150;SDS011;5116;52.318;4.644;2023-02-07T04:14:09;2.60;;;2.40;;
10150;SDS011;5116;52.318;4.644;2023-02-07T04:16:36;3.60;;;2.83;;
10150;SDS011;5116;52.318;4.644;2023-02-07T04:19:04;4.87;;;3.20;;
10150;SDS011;5116;52.318;4.644;2023-02-07T04:21:31;5.27;;;3.30;;
10150;SDS011;5116;52.318;4.644;2023-02-07T04:23:59;3.00;;;2.80;;
10150;SDS011;5116;52.318;4.644;2023-02-07T04:26:26;4.97;;;2.70;;
10150;SDS011;5116;52.318;4.644;2023-02-07T04:28:53;2.50;;;2.30;;
10150;SDS011;5116;52.318;4.644;2023-02-07T04:31:21;4.33;;;2.77;;
10150;SDS011;5116;52.318;4.644;2023-02-07T04:33:49;2.53;;;2.33;;
10150;SDS011;5116;52.318;4.644;2023-02-07T04:36:16;3.77;;;2.67;;
10150;SDS011;5116;52.318;4.644;2023-02-07T04:38:44;2.87;;;2.57;;
10150;SDS011;5116;52.318;4.644;2023-02-07T04:41:11;3.27;;;2.10;;
10150;SDS011;5116;52.318;4.644;2023-02-07T04:43:39;2.33;;;2.13;;
10150;SDS011;5116;52.318;4.644;2023-02-07T04:46:06;3.07;;;2.80;;
10150;SDS011;5116;52.318;4.644;2023-02-07T04:48:34;2.60;;;2.40;;
10150;SDS011;5116;52.318;4.644;2023-02-07T04:51:05;5.27;;;2.97;;
10150;SDS011;5116;52.318;4.644;2023-02-07T04:53:35;3.03;;;2.73;;
10150;SDS011;5116;52.318;4.644;2023-02-07T04:56:02;2.23;;;1.97;;
10150;SDS011;5116;52.318;4.644;2023-02-07T04:58:30;2.77;;;2.17;;
10150;SDS011;5116;52.318;4.644;2023-02-07T05:01:03;3.27;;;2.53;;
10150;SDS011;5116;52.318;4.644;2023-02-07T05:03:30;4.40;;;2.87;;
10150;SDS011;5116;52.318;4.644;2023-02-07T05:05:58;3.23;;;2.43;;
10150;SDS011;5116;52.318;4.644;2023-02-07T05:08:25;2.63;;;2.43;;
10150;SDS011;5116;52.318;4.644;2023-02-07T05:10:53;6.27;;;3.10;;
10150;SDS011;5116;52.318;4.644;2023-02-07T05:13:21;2.80;;;2.50;;
10150;SDS011;5116;52.318;4.644;2023-02-07T05:15:49;2.83;;;2.03;;
10150;SDS011;5116;52.318;4.644;2023-02-07T05:18:17;3.43;;;2.83;;
10150;SDS011;5116;52.318;4.644;2023-02-07T05:20:44;2.57;;;2.37;;
10150;SDS011;5116;52.318;4.644;2023-02-07T05:23:12;3.20;;;2.67;;
10150;SDS011;5116;52.318;4.644;2023-02-07T05:25:40;3.03;;;2.73;;
10150;SDS011;5116;52.318;4.644;2023-02-07T05:28:08;2.80;;;2.60;;
10150;SDS011;5116;52.318;4.644;2023-02-07T05:30:36;3.90;;;2.83;;
10150;SDS011;5116;52.318;4.644;2023-02-07T05:33:04;3.50;;;2.50;;
10150;SDS011;5116;52.318;4.644;2023-02-07T05:35:35;2.73;;;2.53;;
10150;SDS011;5116;52.318;4.644;2023-02-07T05:38:04;6.53;;;2.50;;
10150;SDS011;5116;52.318;4.644;2023-02-07T05:40:33;4.67;;;2.50;;
10150;SDS011;5116;52.318;4.644;2023-02-07T05:43:01;3.50;;;3.20;;
10150;SDS011;5116;52.318;4.644;2023-02-07T05:45:29;3.10;;;2.80;;
10150;SDS011;5116;52.318;4.644;2023-02-07T05:47:56;6.70;;;3.70;;
10150;SDS011;5116;52.318;4.644;2023-02-07T05:50:23;3.67;;;2.37;;
10150;SDS011;5116;52.318;4.644;2023-02-07T05:53:03;4.23;;;3.10;;
10150;SDS011;5116;52.318;4.644;2023-02-07T05:55:30;2.97;;;2.53;;
10150;SDS011;5116;52.318;4.644;2023-02-07T05:57:58;3.33;;;2.90;;
10150;SDS011;5116;52.318;4.644;2023-02-07T06:00:25;3.57;;;2.60;;
10150;SDS011;5116;52.318;4.644;2023-02-07T06:02:52;2.70;;;2.50;;
10150;SDS011;5116;52.318;4.644;2023-02-07T06:05:20;2.73;;;2.53;;
10150;SDS011;5116;52.318;4.644;2023-02-07T06:07:49;3.23;;;2.67;;
10150;SDS011;5116;52.318;4.644;2023-02-07T06:10:17;5.40;;;3.40;;
10150;SDS011;5116;52.318;4.644;2023-02-07T06:12:44;3.17;;;2.63;;
10150;SDS011;5116;52.318;4.644;2023-02-07T06:15:12;4.10;;;3.17;;
10150;SDS011;5116;52.318;4.644;2023-02-07T06:17:39;5.23;;;2.90;;
10150;SDS011;5116;52.318;4.644;2023-02-07T06:20:07;2.73;;;2.50;;
10150;SDS011;5116;52.318;4.644;2023-02-07T06:22:34;4.20;;;3.47;;
10150;SDS011;5116;52.318;4.644;2023-02-07T06:25:02;4.27;;;2.93;;
10150;SDS011;5116;52.318;4.644;2023-02-07T06:27:29;6.67;;;3.20;;
10150;SDS011;5116;52.318;4.644;2023-02-07T06:29:57;3.70;;;3.20;;
10150;SDS011;5116;52.318;4.644;2023-02-07T06:32:24;3.70;;;3.17;;
10150;SDS011;5116;52.318;4.644;2023-02-07T06:34:51;3.27;;;2.50;;
10150;SDS011;5116;52.318;4.644;2023-02-07T06:37:19;2.50;;;2.30;;
10150;SDS011;5116;52.318;4.644;2023-02-07T06:39:46;3.10;;;2.80;;
10150;SDS011;5116;52.318;4.644;2023-02-07T06:42:14;3.97;;;2.80;;
10150;SDS011;5116;52.318;4.644;2023-02-07T06:44:41;3.20;;;2.90;;
10150;SDS011;5116;52.318;4.644;2023-02-07T06:47:08;3.47;;;3.17;;
10150;SDS011;5116;52.318;4.644;2023-02-07T06:49:36;3.30;;;2.53;;
10150;SDS011;5116;52.318;4.644;2023-02-07T06:52:03;6.27;;;2.97;;
10150;SDS011;5116;52.318;4.644;2023-02-07T06:54:31;5.10;;;2.80;;
10150;SDS011;5116;52.318;4.644;2023-02-07T06:56:58;4.27;;;2.60;;
10150;SDS011;5116;52.318;4.644;2023-02-07T06:59:26;4.20;;;2.90;;
10150;SDS011;5116;52.318;4.644;2023-02-07T07:01:53;5.93;;;3.97;;
10150;SDS011;5116;52.318;4.644;2023-02-07T07:04:21;3.93;;;3.53;;
10150;SDS011;5116;52.318;4.644;2023-02-07T07:06:48;5.43;;;3.53;;
10150;SDS011;5116;52.318;4.644;2023-02-07T07:09:16;4.60;;;2.97;;
10150;SDS011;5116;52.318;4.644;2023-02-07T07:11:43;7.57;;;3.73;;
10150;SDS011;5116;52.318;4.644;2023-02-07T07:14:11;6.07;;;2.87;;
10150;SDS011;5116;52.318;4.644;2023-02-07T07:16:38;4.73;;;3.20;;
10150;SDS011;5116;52.318;4.644;2023-02-07T07:19:08;3.37;;;2.87;;
10150;SDS011;5116;52.318;4.644;2023-02-07T07:21:36;2.97;;;2.73;;
10150;SDS011;5116;52.318;4.644;2023-02-07T07:24:03;3.53;;;3.23;;
10150;SDS011;5116;52.318;4.644;2023-02-07T07:26:33;3.13;;;2.87;;
10150;SDS011;5116;52.318;4.644;2023-02-07T07:29:15;3.90;;;2.93;;
10150;SDS011;5116;52.318;4.644;2023-02-07T07:31:43;5.53;;;3.37;;
10150;SDS011;5116;52.318;4.644;2023-02-07T07:34:11;5.10;;;3.33;;
10150;SDS011;5116;52.318;4.644;2023-02-07T07:36:41;5.17;;;3.70;;
10150;SDS011;5116;52.318;4.644;2023-02-07T07:39:09;6.93;;;4.20;;
10150;SDS011;5116;52.318;4.644;2023-02-07T07:41:37;4.87;;;3.90;;
10150;SDS011;5116;52.318;4.644;2023-02-07T07:44:09;7.40;;;3.93;;
10150;SDS011;5116;52.318;4.644;2023-02-07T07:46:37;4.37;;;3.97;;
10150;SDS011;5116;52.318;4.644;2023-02-07T07:49:04;4.30;;;3.60;;
10150;SDS011;5116;52.318;4.644;2023-02-07T07:51:32;6.70;;;3.47;;
10150;SDS011;5116;52.318;4.644;2023-02-07T07:53:59;6.67;;;4.07;;
10150;SDS011;5116;52.318;4.644;2023-02-07T07:56:27;4.87;;;3.77;;
10150;SDS011;5116;52.318;4.644;2023-02-07T07:58:58;4.47;;;4.00;;
10150;SDS011;5116;52.318;4.644;2023-02-07T08:01:34;5.93;;;3.50;;
10150;SDS011;5116;52.318;4.644;2023-02-07T08:04:01;5.47;;;4.37;;
10150;SDS011;5116;52.318;4.644;2023-02-07T08:06:29;5.30;;;4.03;;
10150;SDS011;5116;52.318;4.644;2023-02-07T08:08:57;4.53;;;4.00;;
10150;SDS011;5116;52.318;4.644;2023-02-07T08:11:25;6.03;;;4.17;;
10150;SDS011;5116;52.318;4.644;2023-02-07T08:13:53;5.90;;;3.87;;
10150;SDS011;5116;52.318;4.644;2023-02-07T08:16:20;8.03;;;4.67;;
10150;SDS011;5116;52.318;4.644;2023-02-07T08:18:48;7.43;;;4.50;;
10150;SDS011;5116;52.318;4.644;2023-02-07T08:21:17;4.73;;;4.20;;
10150;SDS011;5116;52.318;4.644;2023-02-07T08:23:44;6.70;;;4.30;;
10150;SDS011;5116;52.318;4.644;2023-02-07T08:26:12;3.60;;;3.30;;
10150;SDS011;5116;52.318;4.644;2023-02-07T08:28:41;5.90;;;3.67;;
10150;SDS011;5116;52.318;4.644;2023-02-07T08:31:09;3.97;;;3.57;;
10150;SDS011;5116;52.318;4.644;2023-02-07T08:33:37;5.50;;;4.27;;
10150;SDS011;5116;52.318;4.644;2023-02-07T08:36:05;7.78;;;4.93;;
10150;SDS011;5116;52.318;4.644;2023-02-07T08:38:35;6.43;;;4.30;;
10150;SDS011;5116;52.318;4.644;2023-02-07T08:41:05;5.50;;;4.57;;
10150;SDS011;5116;52.318;4.644;2023-02-07T08:43:34;6.67;;;3.77;;
10150;SDS011;5116;52.318;4.644;2023-02-07T08:46:03;8.23;;;4.07;;
10150;SDS011;5116;52.318;4.644;2023-02-07T08:48:31;9.77;;;5.53;;
10150;SDS011;5116;52.318;4.644;2023-02-07T08:51:03;5.60;;;4.37;;
10150;SDS011;5116;52.318;4.644;2023-02-07T08:53:32;7.47;;;5.23;;
10150;SDS011;5116;52.318;4.644;2023-02-07T08:56:01;8.17;;;4.73;;
10150;SDS011;5116;52.318;4.644;2023-02-07T08:58:28;9.93;;;6.27;;
10150;SDS011;5116;52.318;4.644;2023-02-07T09:00:56;5.97;;;4.23;;
10150;SDS011;5116;52.318;4.644;2023-02-07T09:03:24;9.73;;;5.40;;
10150;SDS011;5116;52.318;4.644;2023-02-07T09:05:55;6.47;;;4.63;;
10150;SDS011;5116;52.318;4.644;2023-02-07T09:08:23;4.60;;;3.43;;
10150;SDS011;5116;52.318;4.644;2023-02-07T09:10:51;4.50;;;3.87;;
10150;SDS011;5116;52.318;4.644;2023-02-07T09:13:18;9.63;;;5.90;;
10150;SDS011;5116;52.318;4.644;2023-02-07T09:15:51;8.07;;;5.53;;
10150;SDS011;5116;52.318;4.644;2023-02-07T09:18:19;5.70;;;4.63;;
10150;SDS011;5116;52.318;4.644;2023-02-07T09:20:46;6.73;;;5.03;;
10150;SDS011;5116;52.318;4.644;2023-02-07T09:23:14;7.77;;;5.70;;
10150;SDS011;5116;52.318;4.644;2023-02-07T09:25:45;6.63;;;4.70;;
10150;SDS011;5116;52.318;4.644;2023-02-07T09:28:14;6.40;;;4.77;;
10150;SDS011;5116;52.318;4.644;2023-02-07T09:30:42;9.23;;;7.00;;
10150;SDS011;5116;52.318;4.644;2023-02-07T09:33:10;8.40;;;4.87;;
10150;SDS011;5116;52.318;4.644;2023-02-07T09:35:39;7.53;;;5.10;;
10150;SDS011;5116;52.318;4.644;2023-02-07T09:38:08;7.83;;;5.50;;
10150;SDS011;5116;52.318;4.644;2023-02-07T09:40:38;9.03;;;5.37;;
10150;SDS011;5116;52.318;4.644;2023-02-07T09:43:51;6.70;;;5.50;;
10150;SDS011;5116;52.318;4.644;2023-02-07T09:46:09;8.67;;;5.27;;
10150;SDS011;5116;52.318;4.644;2023-02-07T09:48:44;7.20;;;4.00;;
10150;SDS011;5116;52.318;4.644;2023-02-07T09:51:12;6.37;;;4.87;;
10150;SDS011;5116;52.318;4.644;2023-02-07T09:53:51;5.57;;;4.77;;
10150;SDS011;5116;52.318;4.644;2023-02-07T09:56:20;5.90;;;4.13;;
10150;SDS011;5116;52.318;4.644;2023-02-07T10:01:20;4.40;;;3.90;;
10150;SDS011;5116;52.318;4.644;2023-02-07T10:06:16;7.57;;;4.97;;
10150;SDS011;5116;52.318;4.644;2023-02-07T10:08:46;7.50;;;4.80;;
10150;SDS011;5116;52.318;4.644;2023-02-07T10:11:22;6.93;;;4.80;;
10150;SDS011;5116;52.318;4.644;2023-02-07T10:19:50;7.63;;;5.27;;
10150;SDS011;5116;52.318;4.644;2023-02-07T10:22:40;7.73;;;5.77;;
10150;SDS011;5116;52.318;4.644;2023-02-07T10:27:54;9.43;;;5.67;;
10150;SDS011;5116;52.318;4.644;2023-02-07T10:30:25;4.20;;;3.80;;
10150;SDS011;5116;52.318;4.644;2023-02-07T10:32:58;4.93;;;4.10;;
10150;SDS011;5116;52.318;4.644;2023-02-07T10:35:35;6.17;;;4.50;;
10150;SDS011;5116;52.318;4.644;2023-02-07T10:38:10;5.33;;;4.00;;
10150;SDS011;5116;52.318;4.644;2023-02-07T10:40:43;6.50;;;4.77;;
10150;SDS011;5116;52.318;4.644;2023-02-07T10:43:45;8.10;;;5.63;;
10150;SDS011;5116;52.318;4.644;2023-02-07T10:46:05;9.37;;;6.33;;
10150;SDS011;5116;52.318;4.644;2023-02-07T10:48:35;7.53;;;5.50;;
10150;SDS011;5116;52.318;4.644;2023-02-07T10:51:05;7.63;;;5.10;;
10150;SDS011;5116;52.318;4.644;2023-02-07T10:53:50;6.93;;;5.33;;
10150;SDS011;5116;52.318;4.644;2023-02-07T10:56:30;6.73;;;5.47;;
10150;SDS011;5116;52.318;4.644;2023-02-07T10:59:00;8.53;;;5.10;;
10150;SDS011;5116;52.318;4.644;2023-02-07T11:01:28;6.07;;;4.87;;
10150;SDS011;5116;52.318;4.644;2023-02-07T11:03:56;8.80;;;6.07;;
10150;SDS011;5116;52.318;4.644;2023-02-07T11:06:26;8.33;;;5.47;;
10150;SDS011;5116;52.318;4.644;2023-02-07T11:09:18;12.70;;;6.40;;
10150;SDS011;5116;52.318;4.644;2023-02-07T11:11:50;8.50;;;6.47;;
10150;SDS011;5116;52.318;4.644;2023-02-07T11:14:19;6.70;;;4.57;;
10150;SDS011;5116;52.318;4.644;2023-02-07T11:16:55;9.00;;;5.47;;
10150;SDS011;5116;52.318;4.644;2023-02-07T11:19:27;9.50;;;5.60;;
10150;SDS011;5116;52.318;4.644;2023-02-07T11:22:08;8.23;;;4.83;;
10150;SDS011;5116;52.318;4.644;2023-02-07T11:24:36;8.63;;;5.10;;
10150;SDS011;5116;52.318;4.644;2023-02-07T11:27:11;8.37;;;5.70;;
10150;SDS011;5116;52.318;4.644;2023-02-07T11:30:26;7.33;;;4.73;;
10150;SDS011;5116;52.318;4.644;2023-02-07T11:32:28;6.90;;;4.60;;
10150;SDS011;5116;52.318;4.644;2023-02-07T11:34:57;5.80;;;5.00;;
10150;SDS011;5116;52.318;4.644;2023-02-07T11:37:30;9.00;;;5.20;;
10150;SDS011;5116;52.318;4.644;2023-02-07T11:40:18;7.10;;;4.70;;
10150;SDS011;5116;52.318;4.644;2023-02-07T11:42:47;8.43;;;5.43;;
10150;SDS011;5116;52.318;4.644;2023-02-07T11:45:16;6.70;;;4.80;;
10150;SDS011;5116;52.318;4.644;2023-02-07T11:47:44;8.30;;;5.00;;
10150;SDS011;5116;52.318;4.644;2023-02-07T11:50:17;10.07;;;5.90;;
10150;SDS011;5116;52.318;4.644;2023-02-07T11:52:50;7.10;;;4.83;;
10150;SDS011;5116;52.318;4.644;2023-02-07T11:55:25;7.73;;;5.53;;
10150;SDS011;5116;52.318;4.644;2023-02-07T11:57:56;5.73;;;4.37;;
10150;SDS011;5116;52.318;4.644;2023-02-07T12:00:44;10.10;;;5.77;;
10150;SDS011;5116;52.318;4.644;2023-02-07T12:03:23;6.47;;;5.33;;
10150;SDS011;5116;52.318;4.644;2023-02-07T12:05:54;7.13;;;5.70;;
10150;SDS011;5116;52.318;4.644;2023-02-07T12:08:24;7.47;;;5.53;;
10150;SDS011;5116;52.318;4.644;2023-02-07T12:10:54;6.47;;;4.90;;
10150;SDS011;5116;52.318;4.644;2023-02-07T12:13:34;9.63;;;6.07;;
10150;SDS011;5116;52.318;4.644;2023-02-07T12:16:03;6.47;;;5.53;;
10150;SDS011;5116;52.318;4.644;2023-02-07T12:18:34;5.93;;;4.53;;
10150;SDS011;5116;52.318;4.644;2023-02-07T12:21:06;7.37;;;5.43;;
10150;SDS011;5116;52.318;4.644;2023-02-07T12:26:20;6.80;;;5.23;;
10150;SDS011;5116;52.318;4.644;2023-02-07T12:31:50;6.23;;;5.07;;
10150;SDS011;5116;52.318;4.644;2023-02-07T12:34:37;6.03;;;4.80;;
10150;SDS011;5116;52.318;4.644;2023-02-07T12:37:13;7.93;;;5.20;;
10150;SDS011;5116;52.318;4.644;2023-02-07T12:39:47;6.50;;;4.80;;
10150;SDS011;5116;52.318;4.644;2023-02-07T12:42:36;6.20;;;4.83;;
10150;SDS011;5116;52.318;4.644;2023-02-07T12:45:07;6.23;;;4.70;;
10150;SDS011;5116;52.318;4.644;2023-02-07T12:58:24;4.70;;;4.30;;
10150;SDS011;5116;52.318;4.644;2023-02-07T13:01:02;5.03;;;4.13;;
10150;SDS011;5116;52.318;4.644;2023-02-07T13:03:47;5.87;;;4.43;;
10150;SDS011;5116;52.318;4.644;2023-02-07T13:08:52;5.57;;;4.03;;
10150;SDS011;5116;52.318;4.644;2023-02-07T13:16:38;7.07;;;4.37;;
10150;SDS011;5116;52.318;4.644;2023-02-07T13:21:59;7.47;;;5.10;;
10150;SDS011;5116;52.318;4.644;2023-02-07T13:24:28;5.00;;;4.50;;
10150;SDS011;5116;52.318;4.644;2023-02-07T13:26:59;7.13;;;4.30;;
10150;SDS011;5116;52.318;4.644;2023-02-07T13:29:29;5.70;;;4.43;;
10150;SDS011;5116;52.318;4.644;2023-02-07T13:32:06;5.47;;;4.70;;
10150;SDS011;5116;52.318;4.644;2023-02-07T13:34:44;5.10;;;4.20;;
10150;SDS011;5116;52.318;4.644;2023-02-07T13:37:14;6.43;;;4.50;;
10150;SDS011;5116;52.318;4.644;2023-02-07T13:49:59;5.53;;;4.40;;
10150;SDS011;5116;52.318;4.644;2023-02-07T13:57:48;5.50;;;4.67;;
10150;SDS011;5116;52.318;4.644;2023-02-07T14:00:58;4.67;;;4.07;;
10150;SDS011;5116;52.318;4.644;2023-02-07T14:03:31;3.70;;;3.00;;
10150;SDS011;5116;52.318;4.644;2023-02-07T14:06:13;8.30;;;4.50;;
10150;SDS011;5116;52.318;4.644;2023-02-07T14:08:42;4.03;;;3.67;;
10150;SDS011;5116;52.318;4.644;2023-02-07T14:11:31;5.63;;;3.97;;
10150;SDS011;5116;52.318;4.644;2023-02-07T14:14:05;4.80;;;4.23;;
10150;SDS011;5116;52.318;4.644;2023-02-07T14:19:13;8.77;;;3.77;;
10150;SDS011;5116;52.318;4.644;2023-02-07T14:21:45;5.70;;;3.77;;
10150;SDS011;5116;52.318;4.644;2023-02-07T14:24:17;4.67;;;3.33;;
10150;SDS011;5116;52.318;4.644;2023-02-07T14:26:49;5.00;;;3.33;;
10150;SDS011;5116;52.318;4.644;2023-02-07T14:34:23;3.20;;;2.90;;
10150;SDS011;5116;52.318;4.644;2023-02-07T14:36:54;6.23;;;4.17;;
10150;SDS011;5116;52.318;4.644;2023-02-07T14:39:32;6.77;;;3.87;;
10150;SDS011;5116;52.318;4.644;2023-02-07T14:42:01;4.23;;;3.23;;
10150;SDS011;5116;52.318;4.644;2023-02-07T14:44:36;3.43;;;3.03;;
10150;SDS011;5116;52.318;4.644;2023-02-07T14:47:05;7.20;;;3.63;;
10150;SDS011;5116;52.318;4.644;2023-02-07T14:49:40;5.53;;;3.57;;
10150;SDS011;5116;52.318;4.644;2023-02-07T14:52:13;6.27;;;4.07;;
10150;SDS011;5116;52.318;4.644;2023-02-07T15:02:50;3.87;;;3.40;;
10150;SDS011;5116;52.318;4.644;2023-02-07T15:05:19;5.33;;;3.33;;
10150;SDS011;5116;52.318;4.644;2023-02-07T15:07:53;3.70;;;3.40;;
10150;SDS011;5116;52.318;4.644;2023-02-07T15:10:23;5.13;;;3.87;;
10150;SDS011;5116;52.318;4.644;2023-02-07T15:12:51;4.50;;;3.50;;
10150;SDS011;5116;52.318;4.644;2023-02-07T15:15:26;5.27;;;4.17;;
10150;SDS011;5116;52.318;4.644;2023-02-07T15:17:54;3.20;;;2.90;;
10150;SDS011;5116;52.318;4.644;2023-02-07T15:20:29;4.80;;;3.93;;
10150;SDS011;5116;52.318;4.644;2023-02-07T15:22:57;4.07;;;3.67;;
10150;SDS011;5116;52.318;4.644;2023-02-07T15:25:25;3.20;;;2.90;;
10150;SDS011;5116;52.318;4.644;2023-02-07T15:27:57;4.60;;;3.97;;
10150;SDS011;5116;52.318;4.644;2023-02-07T15:30:25;3.43;;;3.13;;
10150;SDS011;5116;52.318;4.644;2023-02-07T15:32:53;8.03;;;4.07;;
10150;SDS011;5116;52.318;4.644;2023-02-07T15:37:48;4.90;;;3.97;;
10150;SDS011;5116;52.318;4.644;2023-02-07T15:40:17;3.93;;;3.40;;
10150;SDS011;5116;52.318;4.644;2023-02-07T15:42:52;3.13;;;2.83;;
10150;SDS011;5116;52.318;4.644;2023-02-07T15:45:22;4.67;;;3.63;;
10150;SDS011;5116;52.318;4.644;2023-02-07T15:48:04;6.50;;;3.80;;
10150;SDS011;5116;52.318;4.644;2023-02-07T15:50:35;5.27;;;3.30;;
10150;SDS011;5116;52.318;4.644;2023-02-07T15:53:04;3.70;;;3.30;;
10150;SDS011;5116;52.318;4.644;2023-02-07T15:55:35;4.13;;;3.60;;
10150;SDS011;5116;52.318;4.644;2023-02-07T15:58:06;7.30;;;4.00;;
10150;SDS011;5116;52.318;4.644;2023-02-07T16:00:35;4.83;;;3.90;;
10150;SDS011;5116;52.318;4.644;2023-02-07T16:03:05;3.47;;;3.00;;
10150;SDS011;5116;52.318;4.644;2023-02-07T16:05:36;4.97;;;3.53;;
10150;SDS011;5116;52.318;4.644;2023-02-07T16:08:05;3.33;;;3.03;;
10150;SDS011;5116;52.318;4.644;2023-02-07T16:10:37;5.00;;;4.13;;
10150;SDS011;5116;52.318;4.644;2023-02-07T16:13:16;5.03;;;3.73;;
10150;SDS011;5116;52.318;4.644;2023-02-07T16:21:04;4.37;;;3.40;;
10150;SDS011;5116;52.318;4.644;2023-02-07T16:23:31;4.13;;;3.73;;
10150;SDS011;5116;52.318;4.644;2023-02-07T16:26:00;6.43;;;3.63;;
10150;SDS011;5116;52.318;4.644;2023-02-07T16:28:30;4.40;;;3.97;;
10150;SDS011;5116;52.318;4.644;2023-02-07T16:30:58;4.93;;;3.07;;
10150;SDS011;5116;52.318;4.644;2023-02-07T16:33:26;3.83;;;3.30;;
10150;SDS011;5116;52.318;4.644;2023-02-07T16:35:53;5.33;;;3.30;;
10150;SDS011;5116;52.318;4.644;2023-02-07T16:38:23;3.70;;;2.93;;
10150;SDS011;5116;52.318;4.644;2023-02-07T16:40:50;3.60;;;2.97;;
10150;SDS011;5116;52.318;4.644;2023-02-07T16:43:28;4.73;;;3.00;;
10150;SDS011;5116;52.318;4.644;2023-02-07T16:45:56;3.63;;;2.97;;
10150;SDS011;5116;52.318;4.644;2023-02-07T16:48:24;4.73;;;3.27;;
10150;SDS011;5116;52.318;4.644;2023-02-07T16:50:54;6.30;;;4.53;;
10150;SDS011;5116;52.318;4.644;2023-02-07T16:53:25;4.27;;;3.20;;
10150;SDS011;5116;52.318;4.644;2023-02-07T16:56:21;4.73;;;3.27;;
10150;SDS011;5116;52.318;4.644;2023-02-07T16:58:50;4.47;;;3.10;;
10150;SDS011;5116;52.318;4.644;2023-02-07T17:01:18;4.93;;;3.67;;
10150;SDS011;5116;52.318;4.644;2023-02-07T17:03:49;3.73;;;3.13;;
10150;SDS011;5116;52.318;4.644;2023-02-07T17:06:18;3.90;;;3.17;;
10150;SDS011;5116;52.318;4.644;2023-02-07T17:08:46;3.73;;;3.17;;